Terminal Aerodrome Forecast
Issued by NWS

Home | Current Version | Previous Version | Text Only | Print | Product List | Glossary On
Versions: 1 2 3 4 5 6 7 8 9 10 11 12 13 14 15 16 17 18 19 20 21 22 23
000
FTUS46 KLOX 022046 AAB
TAFOXR
TAF AMD
KOXR 022046Z 0221/0318 26010KT P6SM BKN013
     FM022102 26012KT P6SM SCT015
     FM030400 VRB03KT P6SM SCT250
     FM030700 VRB03KT P6SM OVC015=

USA.gov is the U.S. government's official web portal to all federal, state and local government web resources and services.